createdAt,value
2017-09-20T00:00:06.370Z,0
2017-09-20T00:01:07.786Z,0
2017-09-20T00:02:09.212Z,0
2017-09-20T00:03:10.622Z,0
2017-09-20T00:04:12.044Z,0
2017-09-20T00:05:13.458Z,0
2017-09-20T00:06:14.871Z,0
2017-09-20T00:07:16.284Z,0
2017-09-20T00:08:17.701Z,0
2017-09-20T00:09:19.123Z,0
2017-09-20T00:10:20.538Z,0
2017-09-20T00:11:21.958Z,0
2017-09-20T00:12:23.375Z,0
2017-09-20T00:13:24.782Z,0
2017-09-20T00:14:26.203Z,0
2017-09-20T00:15:27.620Z,0
2017-09-20T00:16:29.042Z,0
2017-09-20T00:17:30.462Z,0
2017-09-20T00:18:31.885Z,0
2017-09-20T00:19:33.308Z,0
2017-09-20T00:20:34.731Z,0
2017-09-20T00:21:36.153Z,0
2017-09-20T00:22:37.566Z,0
2017-09-20T00:23:38.991Z,0
2017-09-20T00:24:40.422Z,0
2017-09-20T00:25:41.840Z,0
2017-09-20T00:26:43.262Z,0
2017-09-20T00:27:44.678Z,0
2017-09-20T00:28:46.095Z,0
2017-09-20T00:29:47.519Z,0
2017-09-20T00:30:48.938Z,0
2017-09-20T00:31:50.360Z,0
2017-09-20T00:32:51.781Z,0
2017-09-20T00:33:53.196Z,0
2017-09-20T00:34:54.618Z,0
2017-09-20T00:35:56.036Z,0
2017-09-20T00:36:57.460Z,0
2017-09-20T00:37:58.874Z,0
2017-09-20T00:39:00.298Z,0
2017-09-20T00:40:01.706Z,0
2017-09-20T00:41:03.119Z,0
2017-09-20T00:42:04.542Z,0
2017-09-20T00:43:05.966Z,0
2017-09-20T00:44:07.387Z,0
2017-09-20T00:45:08.807Z,0
2017-09-20T00:46:10.229Z,0
2017-09-20T00:47:11.646Z,0
2017-09-20T00:48:13.062Z,0
2017-09-20T00:49:14.483Z,0
2017-09-20T00:50:15.893Z,0
2017-09-20T00:51:17.316Z,0
2017-09-20T00:52:18.726Z,0
2017-09-20T00:53:20.150Z,0
2017-09-20T00:54:21.571Z,0
2017-09-20T00:55:22.993Z,0
2017-09-20T00:56:24.409Z,0
2017-09-20T00:57:25.819Z,0
2017-09-20T00:58:27.241Z,0
2017-09-20T00:59:28.653Z,0
2017-09-20T01:00:30.061Z,0
2017-09-20T01:01:31.480Z,0
2017-09-20T01:02:32.906Z,0
2017-09-20T01:03:34.349Z,0
2017-09-20T01:04:35.735Z,0
2017-09-20T01:05:37.164Z,0
2017-09-20T01:06:38.582Z,0
2017-09-20T01:07:39.998Z,0
2017-09-20T01:08:41.436Z,0
2017-09-20T01:09:42.860Z,0
2017-09-20T01:10:44.342Z,0
2017-09-20T01:11:45.795Z,0
2017-09-20T01:12:47.214Z,0
2017-09-20T01:13:48.627Z,0
2017-09-20T01:14:50.107Z,0
2017-09-20T01:15:51.524Z,0
2017-09-20T01:16:52.950Z,0
2017-09-20T01:17:54.363Z,0
2017-09-20T01:18:55.789Z,0
2017-09-20T01:19:57.206Z,0
2017-09-20T01:20:58.620Z,0
2017-09-20T01:22:00.027Z,0
2017-09-20T01:23:01.449Z,0
2017-09-20T01:24:02.861Z,0
2017-09-20T01:25:04.296Z,0
2017-09-20T01:26:05.708Z,0
2017-09-20T01:27:07.122Z,0
2017-09-20T01:28:08.543Z,0
2017-09-20T01:29:09.964Z,0
2017-09-20T01:30:11.380Z,0
2017-09-20T01:31:12.795Z,0
2017-09-20T01:32:14.213Z,0
2017-09-20T01:33:15.627Z,0
2017-09-20T01:34:17.040Z,0
2017-09-20T01:35:18.451Z,0
2017-09-20T01:36:19.877Z,0
2017-09-20T01:37:21.298Z,0
2017-09-20T01:38:22.705Z,0
2017-09-20T01:39:24.121Z,0
2017-09-20T01:40:25.538Z,0
2017-09-20T01:41:26.954Z,0
2017-09-20T01:42:28.373Z,0
2017-09-20T01:43:29.792Z,0
2017-09-20T01:44:31.205Z,0
2017-09-20T01:45:32.618Z,0
2017-09-20T01:46:34.042Z,0
2017-09-20T01:47:35.456Z,0
2017-09-20T01:48:36.875Z,0
2017-09-20T01:49:38.293Z,0
2017-09-20T01:50:39.718Z,0
2017-09-20T01:51:41.132Z,0
2017-09-20T01:52:42.545Z,0
2017-09-20T01:53:43.960Z,0
2017-09-20T01:54:45.382Z,0
2017-09-20T01:55:46.799Z,0
2017-09-20T01:56:48.214Z,0
2017-09-20T01:57:49.631Z,0
2017-09-20T01:58:51.050Z,0
2017-09-20T01:59:52.467Z,0
2017-09-20T02:00:53.877Z,0
2017-09-20T02:01:55.294Z,0
2017-09-20T02:02:56.710Z,0
2017-09-20T02:03:58.118Z,0
2017-09-20T02:04:59.534Z,0
2017-09-20T02:06:00.947Z,0
2017-09-20T02:07:02.370Z,0
2017-09-20T02:08:03.782Z,0
2017-09-20T02:09:05.256Z,0
2017-09-20T02:10:06.681Z,0
2017-09-20T02:11:08.103Z,0
2017-09-20T02:12:09.527Z,0
2017-09-20T02:13:10.942Z,0
2017-09-20T02:14:12.369Z,0
2017-09-20T02:15:13.802Z,0
2017-09-20T02:16:15.238Z,0
2017-09-20T02:17:16.662Z,0
2017-09-20T02:18:18.105Z,0
2017-09-20T02:19:19.517Z,0
2017-09-20T02:20:20.930Z,0
2017-09-20T02:21:22.356Z,0
2017-09-20T02:22:23.774Z,0
2017-09-20T02:23:25.196Z,0
2017-09-20T02:24:26.612Z,0
2017-09-20T02:25:28.031Z,0
2017-09-20T02:26:29.444Z,0
2017-09-20T02:27:30.860Z,0
2017-09-20T02:28:32.282Z,0
2017-09-20T02:29:33.695Z,0
2017-09-20T02:30:35.108Z,0
2017-09-20T02:31:36.523Z,0
2017-09-20T02:32:37.944Z,0
2017-09-20T02:33:39.359Z,0
2017-09-20T02:34:40.774Z,0
2017-09-20T02:35:42.276Z,0
2017-09-20T02:36:43.687Z,0
2017-09-20T02:37:45.105Z,0
2017-09-20T02:38:46.521Z,0
2017-09-20T02:39:48.018Z,0
2017-09-20T02:40:49.434Z,0
2017-09-20T02:41:50.848Z,0
2017-09-20T02:42:52.269Z,0
2017-09-20T02:43:53.697Z,0
2017-09-20T02:44:55.108Z,0
2017-09-20T02:45:56.529Z,0
2017-09-20T02:46:57.947Z,0
2017-09-20T02:47:59.367Z,0
2017-09-20T02:49:00.787Z,0
2017-09-20T02:50:02.208Z,0
2017-09-20T02:51:03.637Z,0
2017-09-20T02:52:05.049Z,0
2017-09-20T02:53:06.470Z,0
2017-09-20T02:54:07.888Z,0
2017-09-20T02:55:09.311Z,0
2017-09-20T02:56:10.728Z,0
2017-09-20T02:57:12.138Z,0
2017-09-20T02:58:13.553Z,0
2017-09-20T02:59:14.969Z,0
2017-09-20T03:00:16.400Z,0
2017-09-20T03:01:17.819Z,0
2017-09-20T03:02:19.241Z,0
2017-09-20T03:03:20.659Z,0
2017-09-20T03:04:22.081Z,0
2017-09-20T03:05:23.502Z,0
2017-09-20T03:06:24.916Z,0
2017-09-20T03:07:26.351Z,0
2017-09-20T03:08:27.773Z,0
2017-09-20T03:09:29.195Z,0
2017-09-20T03:10:30.620Z,0
2017-09-20T03:11:32.046Z,0
2017-09-20T03:12:33.461Z,0
2017-09-20T03:13:34.871Z,0
2017-09-20T03:14:36.288Z,0
2017-09-20T03:15:37.705Z,0
2017-09-20T03:16:39.139Z,0
2017-09-20T03:17:40.557Z,0
2017-09-20T03:18:41.975Z,0
2017-09-20T03:19:43.401Z,0
2017-09-20T03:20:44.819Z,0
2017-09-20T03:21:46.253Z,0
2017-09-20T03:22:47.700Z,0
2017-09-20T03:23:49.118Z,0
2017-09-20T03:24:50.534Z,0
2017-09-20T03:25:52.006Z,0
2017-09-20T03:26:53.476Z,0
2017-09-20T03:27:54.892Z,0
2017-09-20T03:28:56.320Z,0
2017-09-20T03:29:57.847Z,0
2017-09-20T03:30:59.266Z,0
2017-09-20T03:32:00.677Z,0
2017-09-20T03:33:02.097Z,0
2017-09-20T03:34:03.512Z,0
2017-09-20T03:35:04.927Z,0
2017-09-20T03:36:06.339Z,0
2017-09-20T03:37:07.752Z,0
2017-09-20T03:38:09.168Z,0
2017-09-20T03:39:10.593Z,0
2017-09-20T03:40:12.014Z,4
2017-09-20T03:41:13.470Z,4
2017-09-20T03:42:14.872Z,4
2017-09-20T03:43:16.291Z,4
2017-09-20T03:44:17.720Z,4
2017-09-20T03:45:19.143Z,4
2017-09-20T03:46:20.558Z,4
2017-09-20T03:47:21.966Z,4
2017-09-20T03:48:23.387Z,4
2017-09-20T03:49:24.810Z,4
2017-09-20T03:50:26.221Z,4
2017-09-20T03:51:27.638Z,4
2017-09-20T03:52:29.059Z,4
2017-09-20T03:53:30.480Z,4
2017-09-20T03:54:31.895Z,4
2017-09-20T03:55:33.307Z,4
2017-09-20T03:56:34.739Z,4
2017-09-20T03:57:36.163Z,4
2017-09-20T03:58:37.589Z,4
2017-09-20T03:59:39.004Z,0
2017-09-20T04:00:40.423Z,0
2017-09-20T04:01:41.840Z,0
2017-09-20T04:02:43.254Z,0
2017-09-20T04:03:44.666Z,0
2017-09-20T04:04:46.090Z,0
2017-09-20T04:05:47.513Z,0
2017-09-20T04:06:48.932Z,0
2017-09-20T04:07:50.348Z,0
2017-09-20T04:08:51.765Z,0
2017-09-20T04:09:53.183Z,0
2017-09-20T04:10:54.613Z,0
2017-09-20T04:11:56.031Z,0
2017-09-20T04:12:57.450Z,0
2017-09-20T04:13:58.874Z,0
2017-09-20T04:15:00.388Z,0
2017-09-20T04:16:01.862Z,0
2017-09-20T04:17:03.286Z,0
2017-09-20T04:18:04.702Z,0
2017-09-20T04:19:06.114Z,0
2017-09-20T04:20:07.548Z,0
2017-09-20T04:21:08.961Z,0
2017-09-20T04:22:10.380Z,0
2017-09-20T04:23:11.833Z,0
2017-09-20T04:24:13.247Z,0
2017-09-20T04:25:14.672Z,0
2017-09-20T04:26:16.095Z,0
2017-09-20T04:27:17.518Z,0
2017-09-20T04:28:18.940Z,0
2017-09-20T04:29:20.361Z,0
2017-09-20T04:30:21.786Z,0
2017-09-20T04:31:23.207Z,0
2017-09-20T04:32:24.618Z,0
2017-09-20T04:33:26.030Z,0
2017-09-20T04:34:27.450Z,0
2017-09-20T04:35:28.870Z,0
2017-09-20T04:36:30.285Z,0
2017-09-20T04:37:31.702Z,0
2017-09-20T04:38:33.121Z,0
2017-09-20T04:39:34.544Z,0
2017-09-20T04:40:35.954Z,0
2017-09-20T04:41:37.374Z,0
2017-09-20T04:42:38.789Z,0
2017-09-20T04:43:40.212Z,0
2017-09-20T04:44:41.627Z,0
2017-09-20T04:45:43.051Z,0
2017-09-20T04:46:44.467Z,0
2017-09-20T04:47:45.883Z,0
2017-09-20T04:48:47.303Z,0
2017-09-20T04:49:48.714Z,0
2017-09-20T04:50:50.130Z,0
2017-09-20T04:51:51.549Z,0
2017-09-20T04:52:52.960Z,0
2017-09-20T04:53:54.377Z,4
2017-09-20T04:54:55.796Z,4
2017-09-20T04:55:57.217Z,4
2017-09-20T04:56:58.628Z,0
2017-09-20T04:58:00.099Z,4
2017-09-20T04:59:01.513Z,4
2017-09-20T05:00:02.927Z,4
2017-09-20T05:01:04.370Z,4
2017-09-20T05:02:05.793Z,4
2017-09-20T05:03:07.216Z,4
2017-09-20T05:04:08.636Z,4
2017-09-20T05:05:10.061Z,4
2017-09-20T05:06:11.482Z,8
2017-09-20T05:07:12.897Z,4
2017-09-20T05:08:14.311Z,8
2017-09-20T05:09:15.730Z,8
2017-09-20T05:10:17.153Z,8
2017-09-20T05:11:18.571Z,8
2017-09-20T05:12:19.989Z,12
2017-09-20T05:13:21.400Z,8
2017-09-20T05:14:22.821Z,8
2017-09-20T05:15:24.237Z,8
2017-09-20T05:16:25.656Z,12
2017-09-20T05:17:27.080Z,12
2017-09-20T05:18:28.520Z,12
2017-09-20T05:19:29.948Z,12
2017-09-20T05:20:31.366Z,12
2017-09-20T05:21:32.782Z,16
2017-09-20T05:22:34.205Z,20
2017-09-20T05:23:35.624Z,20
2017-09-20T05:24:37.042Z,16
2017-09-20T05:25:38.467Z,20
2017-09-20T05:26:39.883Z,20
2017-09-20T05:27:41.301Z,20
2017-09-20T05:28:42.714Z,24
2017-09-20T05:29:44.132Z,24
2017-09-20T05:30:45.557Z,24
2017-09-20T05:31:46.981Z,28
2017-09-20T05:32:48.409Z,28
2017-09-20T05:33:49.832Z,28
2017-09-20T05:34:51.247Z,32
2017-09-20T05:35:52.664Z,32
2017-09-20T05:36:54.086Z,40
2017-09-20T05:37:55.512Z,36
2017-09-20T05:39:07.757Z,44
2017-09-20T05:40:09.873Z,40
2017-09-20T05:41:11.300Z,40
2017-09-20T05:42:12.724Z,36
2017-09-20T05:43:14.142Z,40
2017-09-20T05:44:15.564Z,40
2017-09-20T05:45:16.983Z,40
2017-09-20T05:46:18.395Z,40
2017-09-20T05:47:19.814Z,44
2017-09-20T05:48:21.236Z,44
2017-09-20T05:49:22.679Z,52
2017-09-20T05:50:24.105Z,56
2017-09-20T05:51:25.516Z,68
2017-09-20T05:52:26.932Z,72
2017-09-20T05:53:28.356Z,76
2017-09-20T05:54:29.785Z,84
2017-09-20T05:55:31.203Z,100
2017-09-20T05:56:32.618Z,116
2017-09-20T05:57:34.043Z,132
2017-09-20T05:58:35.462Z,136
2017-09-20T05:59:36.882Z,144
2017-09-20T06:00:38.304Z,152
2017-09-20T06:01:39.722Z,164
2017-09-20T06:02:41.137Z,168
2017-09-20T06:03:42.581Z,180
2017-09-20T06:04:43.993Z,188
2017-09-20T06:05:45.415Z,200
2017-09-20T06:06:46.833Z,200
2017-09-20T06:07:48.254Z,216
2017-09-20T06:08:49.675Z,232
2017-09-20T06:09:51.103Z,248
2017-09-20T06:10:52.533Z,268
2017-09-20T06:11:53.963Z,288
2017-09-20T06:12:55.380Z,304
2017-09-20T06:13:56.812Z,308
2017-09-20T06:14:58.234Z,312
2017-09-20T06:15:59.651Z,304
2017-09-20T06:17:01.071Z,296
2017-09-20T06:18:02.496Z,288
2017-09-20T06:19:03.959Z,268
2017-09-20T06:20:05.384Z,252
2017-09-20T06:21:06.814Z,260
2017-09-20T06:22:08.280Z,276
2017-09-20T06:23:09.681Z,296
2017-09-20T06:24:11.104Z,304
2017-09-20T06:25:12.526Z,300
2017-09-20T06:26:13.960Z,284
2017-09-20T06:27:15.379Z,284
2017-09-20T06:28:16.843Z,300
2017-09-20T06:29:18.266Z,308
2017-09-20T06:30:19.697Z,312
2017-09-20T06:31:21.125Z,312
2017-09-20T06:32:22.544Z,312
2017-09-20T06:33:23.965Z,312
2017-09-20T06:34:25.388Z,308
2017-09-20T06:35:26.807Z,308
2017-09-20T06:36:28.233Z,312
2017-09-20T06:37:29.647Z,320
2017-09-20T06:38:31.075Z,324
2017-09-20T06:39:32.493Z,336
2017-09-20T06:40:33.909Z,352
2017-09-20T06:41:35.335Z,368
2017-09-20T06:42:36.757Z,380
2017-09-20T06:43:38.174Z,400
2017-09-20T06:44:39.592Z,432
2017-09-20T06:45:41.021Z,456
2017-09-20T06:46:42.448Z,476
2017-09-20T06:47:43.898Z,496
2017-09-20T06:48:45.288Z,528
2017-09-20T06:49:46.708Z,524
2017-09-20T06:50:48.124Z,532
2017-09-20T06:51:49.550Z,528
2017-09-20T06:52:51.010Z,508
2017-09-20T06:53:52.429Z,508
2017-09-20T06:54:53.847Z,500
2017-09-20T06:55:55.262Z,520
2017-09-20T06:56:56.683Z,592
2017-09-20T06:57:58.104Z,680
2017-09-20T06:58:59.528Z,656
2017-09-20T07:00:00.950Z,592
2017-09-20T07:01:02.364Z,564
2017-09-20T07:02:03.783Z,524
2017-09-20T07:03:05.208Z,456
2017-09-20T07:04:06.624Z,420
2017-09-20T07:05:08.048Z,396
2017-09-20T07:06:09.495Z,384
2017-09-20T07:07:10.901Z,380
2017-09-20T07:08:12.319Z,380
2017-09-20T07:09:13.754Z,184
2017-09-20T07:10:15.175Z,396
2017-09-20T07:11:16.598Z,388
2017-09-20T07:12:18.014Z,376
2017-09-20T07:13:19.436Z,364
2017-09-20T07:14:20.859Z,356
2017-09-20T07:15:22.288Z,344
2017-09-20T07:16:23.705Z,332
2017-09-20T07:17:25.128Z,336
2017-09-20T07:18:26.548Z,348
2017-09-20T07:19:27.962Z,344
2017-09-20T07:20:29.395Z,336
2017-09-20T07:21:30.818Z,336
2017-09-20T07:22:32.240Z,356
2017-09-20T07:23:33.673Z,348
2017-09-20T07:24:35.705Z,352
2017-09-20T07:25:37.152Z,352
2017-09-20T07:26:38.577Z,356
2017-09-20T07:27:39.999Z,364
2017-09-20T07:28:41.423Z,368
2017-09-20T07:29:42.848Z,384
2017-09-20T07:30:44.272Z,400
2017-09-20T07:31:45.691Z,452
2017-09-20T07:32:47.112Z,488
2017-09-20T07:33:48.540Z,528
2017-09-20T07:34:49.967Z,540
2017-09-20T07:35:51.384Z,564
2017-09-20T07:36:52.818Z,608
2017-09-20T07:37:54.234Z,648
2017-09-20T07:38:55.657Z,700
2017-09-20T07:39:57.093Z,704
2017-09-20T07:40:58.514Z,696
2017-09-20T07:41:59.937Z,696
2017-09-20T07:43:01.355Z,684
2017-09-20T07:44:02.785Z,712
2017-09-20T07:45:04.238Z,736
2017-09-20T07:46:05.670Z,776
2017-09-20T07:47:07.097Z,788
2017-09-20T07:48:08.516Z,808
2017-09-20T07:49:09.939Z,820
2017-09-20T07:50:11.413Z,832
2017-09-20T07:51:12.841Z,888
2017-09-20T07:52:14.263Z,916
2017-09-20T07:53:15.686Z,908
2017-09-20T07:54:17.109Z,892
2017-09-20T07:55:18.628Z,876
2017-09-20T07:56:20.141Z,856
2017-09-20T07:57:21.572Z,856
2017-09-20T07:58:22.997Z,856
2017-09-20T07:59:24.419Z,880
2017-09-20T08:00:25.844Z,952
2017-09-20T08:01:27.262Z,984
2017-09-20T08:02:28.683Z,1016
2017-09-20T08:03:30.158Z,1024
2017-09-20T08:04:31.582Z,1048
2017-09-20T08:05:33.000Z,1064
2017-09-20T08:06:34.419Z,1080
2017-09-20T08:07:35.846Z,1080
2017-09-20T08:08:37.264Z,1080
2017-09-20T08:09:38.695Z,1092
2017-09-20T08:10:40.110Z,1096
2017-09-20T08:11:41.535Z,1088
2017-09-20T08:12:42.987Z,1080
2017-09-20T08:13:44.412Z,1084
2017-09-20T08:14:45.832Z,1088
2017-09-20T08:15:47.250Z,1104
2017-09-20T08:16:48.671Z,1124
2017-09-20T08:17:50.092Z,1160
2017-09-20T08:18:51.524Z,1184
2017-09-20T08:19:52.953Z,1220
2017-09-20T08:20:54.374Z,1264
2017-09-20T08:21:55.789Z,1272
2017-09-20T08:22:57.213Z,1304
2017-09-20T08:23:58.641Z,1292
2017-09-20T08:25:00.064Z,1232
2017-09-20T08:26:01.480Z,1160
2017-09-20T08:27:02.907Z,1056
2017-09-20T08:28:04.348Z,996
2017-09-20T08:29:05.811Z,1028
2017-09-20T08:30:07.241Z,1056
2017-09-20T08:31:08.659Z,1088
2017-09-20T08:32:10.131Z,1120
2017-09-20T08:33:11.555Z,1152
2017-09-20T08:34:12.982Z,1144
2017-09-20T08:35:14.475Z,1100
2017-09-20T08:36:15.899Z,1116
2017-09-20T08:37:17.320Z,956
2017-09-20T08:38:18.739Z,796
2017-09-20T08:39:20.161Z,744
2017-09-20T08:40:21.591Z,748
2017-09-20T08:41:23.008Z,828
2017-09-20T08:42:24.431Z,1024
2017-09-20T08:43:25.876Z,972
2017-09-20T08:44:27.290Z,888
2017-09-20T08:45:28.715Z,848
2017-09-20T08:46:30.145Z,844
2017-09-20T08:47:31.562Z,916
2017-09-20T08:48:32.987Z,936
2017-09-20T08:49:34.410Z,920
2017-09-20T08:50:35.831Z,808
2017-09-20T08:51:37.254Z,796
2017-09-20T08:52:38.675Z,884
2017-09-20T08:53:40.112Z,1024
2017-09-20T08:54:41.530Z,1064
2017-09-20T08:55:42.957Z,1124
2017-09-20T08:56:44.404Z,1172
2017-09-20T08:57:45.834Z,1300
2017-09-20T08:58:47.259Z,1260
2017-09-20T08:59:48.683Z,1136
2017-09-20T09:00:50.103Z,1024
2017-09-20T09:01:51.535Z,956
2017-09-20T09:02:52.995Z,912
2017-09-20T09:03:54.387Z,868
2017-09-20T09:04:55.815Z,880
2017-09-20T09:05:57.247Z,948
2017-09-20T09:06:58.663Z,968
2017-09-20T09:08:00.100Z,960
2017-09-20T09:09:01.525Z,936
2017-09-20T09:10:02.939Z,924
2017-09-20T09:11:04.363Z,872
2017-09-20T09:12:05.783Z,840
2017-09-20T09:13:07.210Z,912
2017-09-20T09:14:08.640Z,980
2017-09-20T09:15:10.061Z,1004
2017-09-20T09:16:11.484Z,1036
2017-09-20T09:17:12.910Z,1112
2017-09-20T09:18:14.335Z,1204
2017-09-20T09:19:15.757Z,1220
2017-09-20T09:20:17.185Z,1280
2017-09-20T09:21:18.608Z,1260
2017-09-20T09:22:20.054Z,1276
2017-09-20T09:23:21.470Z,1276
2017-09-20T09:24:22.894Z,1228
2017-09-20T09:25:24.315Z,1200
2017-09-20T09:26:25.742Z,1164
2017-09-20T09:27:27.159Z,1096
2017-09-20T09:28:28.582Z,1028
2017-09-20T09:29:30.038Z,960
2017-09-20T09:30:31.454Z,936
2017-09-20T09:31:32.882Z,888
2017-09-20T09:32:34.303Z,840
2017-09-20T09:33:35.736Z,860
2017-09-20T09:34:37.161Z,948
2017-09-20T09:35:38.594Z,1068
2017-09-20T09:36:40.041Z,1192
2017-09-20T09:37:41.461Z,1260
2017-09-20T09:38:42.881Z,1304
2017-09-20T09:39:44.302Z,1288
2017-09-20T09:40:45.722Z,1272
2017-09-20T09:41:47.139Z,1208
2017-09-20T09:42:48.566Z,1140
2017-09-20T09:43:49.991Z,1008
2017-09-20T09:44:51.419Z,936
2017-09-20T09:45:52.842Z,968
2017-09-20T09:46:54.266Z,1024
2017-09-20T09:47:55.680Z,936
2017-09-20T09:48:57.103Z,744
2017-09-20T09:49:58.519Z,632
2017-09-20T09:50:59.956Z,696
2017-09-20T09:52:01.386Z,896
2017-09-20T09:53:02.816Z,1076
2017-09-20T09:54:04.247Z,1292
2017-09-20T09:55:05.672Z,1404
2017-09-20T09:56:07.094Z,1404
2017-09-20T09:57:09.065Z,1372
2017-09-20T09:58:10.494Z,1532
2017-09-20T09:59:11.921Z,1644
2017-09-20T10:00:13.351Z,1708
2017-09-20T10:01:14.773Z,1708
2017-09-20T10:02:16.193Z,1736
2017-09-20T10:03:17.616Z,1860
2017-09-20T10:04:19.065Z,1984
2017-09-20T10:05:20.463Z,2132
2017-09-20T10:06:21.890Z,2228
2017-09-20T10:07:23.318Z,2328
2017-09-20T10:08:24.749Z,2420
2017-09-20T10:09:26.178Z,2460
2017-09-20T10:10:27.607Z,2488
2017-09-20T10:11:29.031Z,2472
2017-09-20T10:12:30.455Z,2524
2017-09-20T10:13:31.880Z,2528
2017-09-20T10:14:33.301Z,2504
2017-09-20T10:15:34.726Z,2536
2017-09-20T10:16:36.151Z,2488
2017-09-20T10:17:37.576Z,2468
2017-09-20T10:18:39.001Z,2612
2017-09-20T10:19:40.430Z,2992
2017-09-20T10:20:41.853Z,2912
2017-09-20T10:21:43.277Z,2956
2017-09-20T10:22:44.705Z,2988
2017-09-20T10:23:46.127Z,1924
2017-09-20T10:24:47.555Z,2900
2017-09-20T10:25:48.975Z,2720
2017-09-20T10:26:50.402Z,2540
2017-09-20T10:27:51.839Z,2356
2017-09-20T10:28:53.260Z,2264
2017-09-20T10:29:54.691Z,2168
2017-09-20T10:30:56.119Z,2140
2017-09-20T10:31:57.543Z,2124
2017-09-20T10:32:58.962Z,2068
2017-09-20T10:34:00.385Z,2044
2017-09-20T10:35:01.820Z,2092
2017-09-20T10:36:03.249Z,2096
2017-09-20T10:37:05.167Z,2084
2017-09-20T10:38:06.593Z,2096
2017-09-20T10:39:08.027Z,2228
2017-09-20T10:40:09.455Z,2324
2017-09-20T10:41:10.884Z,2296
2017-09-20T10:42:12.311Z,2212
2017-09-20T10:43:13.738Z,2420
2017-09-20T10:44:15.164Z,2128
2017-09-20T10:45:16.592Z,2376
2017-09-20T10:46:18.012Z,2744
2017-09-20T10:47:19.441Z,2708
2017-09-20T10:48:20.877Z,2444
2017-09-20T10:49:22.305Z,1968
2017-09-20T10:50:23.731Z,1928
2017-09-20T10:51:25.151Z,2592
2017-09-20T10:52:26.575Z,2892
2017-09-20T10:53:28.035Z,2788
2017-09-20T10:54:29.452Z,1120
2017-09-20T10:55:30.882Z,2968
2017-09-20T10:56:32.351Z,2872
2017-09-20T10:57:33.775Z,3080
2017-09-20T10:58:35.207Z,2820
2017-09-20T10:59:36.632Z,2680
2017-09-20T11:00:38.057Z,3036
2017-09-20T11:01:39.487Z,2996
2017-09-20T11:02:40.915Z,3264
2017-09-20T11:03:42.337Z,4072
2017-09-20T11:04:43.765Z,4188
2017-09-20T11:05:45.193Z,4460
2017-09-20T11:06:46.621Z,4520
2017-09-20T11:07:48.051Z,3916
2017-09-20T11:08:49.477Z,3852
2017-09-20T11:09:50.902Z,3912
2017-09-20T11:10:52.336Z,4120
2017-09-20T11:11:53.770Z,4028
2017-09-20T11:12:55.210Z,3884
2017-09-20T11:13:56.640Z,4688
2017-09-20T11:14:58.072Z,4920
2017-09-20T11:15:59.483Z,4228
2017-09-20T11:17:00.911Z,4876
2017-09-20T11:18:02.333Z,5160
2017-09-20T11:19:03.775Z,4244
2017-09-20T11:20:05.216Z,5100
2017-09-20T11:21:06.628Z,5184
2017-09-20T11:22:08.053Z,4920
2017-09-20T11:23:09.474Z,4772
2017-09-20T11:24:10.901Z,4660
2017-09-20T11:25:12.323Z,1804
2017-09-20T11:26:13.751Z,4592
2017-09-20T11:27:15.177Z,3932
2017-09-20T11:28:16.604Z,2628
2017-09-20T11:29:18.041Z,1388
2017-09-20T11:30:19.471Z,1396
2017-09-20T11:31:20.899Z,1444
2017-09-20T11:32:22.326Z,1584
2017-09-20T11:33:23.752Z,1900
2017-09-20T11:34:25.180Z,2612
2017-09-20T11:35:26.622Z,3620
2017-09-20T11:36:28.056Z,2612
2017-09-20T11:37:29.478Z,3024
2017-09-20T11:38:30.908Z,3564
2017-09-20T11:39:32.338Z,3804
2017-09-20T11:40:33.778Z,2992
2017-09-20T11:41:35.200Z,1608
2017-09-20T11:42:36.623Z,1228
2017-09-20T11:43:38.039Z,956
2017-09-20T11:44:39.467Z,1356
2017-09-20T11:45:40.891Z,2164
2017-09-20T11:46:42.313Z,2568
2017-09-20T11:47:43.731Z,4472
2017-09-20T11:48:45.161Z,2344
2017-09-20T11:49:46.585Z,2956
2017-09-20T11:50:48.012Z,4680
2017-09-20T11:51:49.438Z,4740
2017-09-20T11:52:50.871Z,5300
2017-09-20T11:53:52.324Z,5112
2017-09-20T11:54:53.775Z,4924
2017-09-20T11:55:55.193Z,4528
2017-09-20T11:56:56.619Z,4564
2017-09-20T11:57:58.070Z,4328
2017-09-20T11:58:59.501Z,4132
2017-09-20T12:00:00.924Z,4892
2017-09-20T12:01:02.420Z,4224
2017-09-20T12:02:03.847Z,3804
2017-09-20T12:03:05.280Z,4380
2017-09-20T12:04:06.717Z,4300
2017-09-20T12:05:08.144Z,4136
2017-09-20T12:06:09.616Z,4552
2017-09-20T12:07:11.049Z,4788
2017-09-20T12:08:12.474Z,5156
2017-09-20T12:09:13.916Z,4980
2017-09-20T12:10:15.340Z,5008
2017-09-20T12:11:16.772Z,4560
2017-09-20T12:12:18.204Z,5004
2017-09-20T12:13:19.633Z,5136
2017-09-20T12:14:21.056Z,5932
2017-09-20T12:15:22.488Z,5700
2017-09-20T12:16:23.918Z,4696
2017-09-20T12:17:25.343Z,4052
2017-09-20T12:18:26.776Z,4120
2017-09-20T12:19:28.213Z,4812
2017-09-20T12:20:29.638Z,5836
2017-09-20T12:21:31.063Z,5876
2017-09-20T12:22:32.508Z,6272
2017-09-20T12:23:33.933Z,5816
2017-09-20T12:24:35.361Z,7316
2017-09-20T12:25:36.791Z,7316
2017-09-20T12:26:38.220Z,7488
2017-09-20T12:27:39.641Z,6812
2017-09-20T12:28:41.072Z,5356
2017-09-20T12:29:42.505Z,4968
2017-09-20T12:30:43.937Z,4844
2017-09-20T12:31:45.373Z,1404
2017-09-20T12:32:46.777Z,5116
2017-09-20T12:33:48.209Z,5356
2017-09-20T12:34:49.643Z,5072
2017-09-20T12:35:51.061Z,5108
2017-09-20T12:36:52.493Z,4940
2017-09-20T12:37:53.916Z,5056
2017-09-20T12:38:55.370Z,5132
2017-09-20T12:39:56.787Z,5228
2017-09-20T12:40:58.214Z,5112
2017-09-20T12:41:59.644Z,4872
2017-09-20T12:43:01.083Z,4504
2017-09-20T12:44:02.523Z,4552
2017-09-20T12:45:03.963Z,4908
2017-09-20T12:46:05.422Z,4348
2017-09-20T12:47:06.821Z,3692
2017-09-20T12:48:08.254Z,2036
2017-09-20T12:49:09.685Z,1700
2017-09-20T12:50:11.108Z,1484
2017-09-20T12:51:12.540Z,1296
2017-09-20T12:52:13.981Z,1156
2017-09-20T12:53:15.408Z,1096
2017-09-20T12:54:16.833Z,1092
2017-09-20T12:55:18.265Z,1028
2017-09-20T12:56:19.692Z,804
2017-09-20T12:57:21.115Z,752
2017-09-20T12:58:22.546Z,636
2017-09-20T12:59:23.975Z,676
2017-09-20T13:00:25.404Z,756
2017-09-20T13:01:26.830Z,800
2017-09-20T13:02:28.258Z,620
2017-09-20T13:03:29.692Z,816
2017-09-20T13:04:31.112Z,456
2017-09-20T13:05:32.533Z,1036
2017-09-20T13:06:33.952Z,1224
2017-09-20T13:07:35.395Z,1528
2017-09-20T13:08:36.836Z,2240
2017-09-20T13:09:38.276Z,4412
2017-09-20T13:10:39.684Z,46848
2017-09-20T13:11:41.127Z,44576
2017-09-20T13:12:42.560Z,60128
2017-09-20T13:13:43.985Z,69824
2017-09-20T13:14:45.431Z,69536
2017-09-20T13:15:46.875Z,5228
2017-09-20T13:16:48.319Z,4500
2017-09-20T13:17:49.749Z,2664
2017-09-20T13:18:51.175Z,3108
2017-09-20T13:19:52.599Z,9624
2017-09-20T13:20:54.023Z,79904
2017-09-20T13:21:55.458Z,80960
2017-09-20T13:22:56.895Z,80896
2017-09-20T13:23:58.440Z,82112
2017-09-20T13:24:59.872Z,86272
2017-09-20T13:26:01.337Z,89664
2017-09-20T13:27:02.762Z,93440
2017-09-20T13:28:04.201Z,95200
2017-09-20T13:29:05.656Z,95552
2017-09-20T13:30:07.088Z,96768
2017-09-20T13:31:08.519Z,96704
2017-09-20T13:32:09.948Z,99136
2017-09-20T13:33:11.382Z,99008
2017-09-20T13:34:12.865Z,99456
2017-09-20T13:35:14.297Z,101344
2017-09-20T13:36:15.734Z,102048
2017-09-20T13:37:17.166Z,1004
2017-09-20T13:38:18.611Z,101280
2017-09-20T13:39:20.058Z,103072
2017-09-20T13:40:21.496Z,103008
2017-09-20T13:41:22.929Z,1032
2017-09-20T13:42:24.369Z,97472
2017-09-20T13:43:25.814Z,83072
2017-09-20T13:44:27.262Z,73664
2017-09-20T13:45:28.697Z,65152
2017-09-20T13:46:30.153Z,60384
2017-09-20T13:47:31.672Z,16580
2017-09-20T13:48:33.113Z,14312
2017-09-20T13:49:34.579Z,3560
2017-09-20T13:50:36.013Z,3056
2017-09-20T13:51:37.455Z,3108
2017-09-20T13:52:38.888Z,2992
2017-09-20T13:53:40.334Z,3620
2017-09-20T13:54:41.769Z,3572
2017-09-20T13:55:43.203Z,2912
2017-09-20T13:56:44.646Z,2956
2017-09-20T13:57:46.085Z,2924
2017-09-20T13:58:47.516Z,2760
2017-09-20T13:59:48.949Z,2400
2017-09-20T14:00:50.423Z,2356
2017-09-20T14:01:51.860Z,2300
2017-09-20T14:02:53.294Z,2340
2017-09-20T14:03:54.722Z,2204
2017-09-20T14:04:56.176Z,2188
2017-09-20T14:05:57.622Z,2260
2017-09-20T14:06:59.055Z,2492
2017-09-20T14:08:00.505Z,2324
2017-09-20T14:09:01.944Z,2244
2017-09-20T14:10:03.376Z,2388
2017-09-20T14:11:04.808Z,2272
2017-09-20T14:12:06.249Z,2308
2017-09-20T14:13:07.678Z,2332
2017-09-20T14:14:09.110Z,2156
2017-09-20T14:15:10.549Z,2472
2017-09-20T14:16:11.986Z,2852